| Date | Time | Temp. (oF) | Dew Point (oF) | Rel. Hum. (%) | Press. (in.) | Wind Dir. | Wind Speed (mph) | Hourly Rainfall (in.) |
|
|---|---|---|---|---|---|---|---|---|---|
| 1 | 12/09 | 00:00 | 24 | 16 | 72 | 30.55 | WNW | 1 | 0.00 |
| 2 | 12/08 | 23:00 | 23 | 15 | 72 | 30.55 | WNW | 1 | 0.00 |
| 3 | 12/08 | 22:00 | 24 | 15 | 69 | 30.56 | WNW | 1 | 0.00 |
| 4 | 12/08 | 21:00 | 25 | 15 | 67 | 30.54 | WNW | 1 | 0.00 |
| 5 | 12/08 | 20:00 | 26 | 15 | 64 | 30.52 | WNW | 2 | 0.00 |
| 6 | 12/08 | 19:00 | 26 | 14 | 62 | 30.52 | W | 2 | 0.00 |
| 7 | 12/08 | 18:00 | 28 | 15 | 58 | 30.51 | WNW | 3 | 0.00 |
| 8 | 12/08 | 17:00 | 29 | 14 | 54 | 30.49 | NW | 7 | 0.00 |
| 9 | 12/08 | 16:00 | 31 | 14 | 49 | 30.48 | WNW | 6 | 0.00 |
| 10 | 12/08 | 15:00 | 33 | 14 | 46 | 30.44 | W | 7 | 0.00 |
| 11 | 12/08 | 14:00 | 34 | 15 | 46 | 30.44 | WNW | 9 | 0.00 |
| 12 | 12/08 | 13:00 | 34 | 15 | 46 | 30.44 | WNW | 9 | 0.00 |
| 13 | 12/08 | 12:00 | 34 | 17 | 51 | 30.47 | SSW | 5 | 0.00 |
| 14 | 12/08 | 11:00 | 32 | 18 | 57 | 30.50 | S | 7 | 0.00 |
| 15 | 12/08 | 10:00 | 29 | 21 | 72 | 30.52 | SW | 5 | 0.00 |
| 16 | 12/08 | 09:00 | 24 | 21 | 89 | 30.51 | SSW | 4 | 0.00 |
| 17 | 12/08 | 08:00 | 21 | 19 | 92 | 30.48 | WSW | 0 | 0.00 |
| 18 | 12/08 | 07:00 | 20 | 18 | 94 | 30.48 | W | 1 | 0.00 |
| 19 | 12/08 | 06:00 | 18 | 16 | 94 | 30.47 | ESE | 2 | 0.00 |
| 20 | 12/08 | 05:00 | 16 | 14 | 94 | 30.46 | ESE | 1 | 0.00 |
| 21 | 12/08 | 04:00 | 16 | 13 | 91 | 30.46 | ESE | 0 | 0.00 |
| 22 | 12/08 | 03:00 | 17 | 14 | 90 | 30.47 | ESE | 1 | 0.00 |
| 23 | 12/08 | 02:00 | 18 | 15 | 88 | 30.46 | ESE | 1 | 0.00 |
| 24 | 12/08 | 01:00 | 19 | 14 | 83 | 30.45 | ESE | 0 | 0.00 |